Weather at Long Seridan Airport

Public forecast

Using degrees Celsius for public forecast. Weather courtesy of forecast.io.

Closest aviation weather report (METAR) to Long Seridan Airport

Closest report is Brunei International Airport, 59.1 nm (109.5 km) N. Retrieved 2022/08/09 08:00 UTC (15 minutes ago):

WBSB 090800Z 31005KT 9999 TS FEW015 FEW016CB SCT140 BKN300 32/26 Q1006 TEMPO 7000 -TSRA

Closest aviation forecast (TAF) to Long Seridan Airport

Closest forecast is Brunei International Airport, 59.1 nm (109.5 km) N. Retrieved 2022/08/09 06:12 UTC (2 hours ago):

TAF WBSB 090450Z 0906/1012 33008KT 9999 FEW015 FEW016CB TEMPO 0910/0914 6000 -TSRA BECMG 0912/0914 23005KT FEW014 FEW015CB TEMPO 0914/0918 6000 -TSRA